Terminal Aerodrome Forecast
Issued by NWS

Home | Current Version | Previous Version | Text Only | Print | Product List | Glossary On
Versions: 1 2 3 4 5 6 7 8 9 10 11 12 13 14 15 16 17 18 19 20 21 22 23 24 25 26 27 28 29
915
FTAK31 PANC 222325
TAFADL
TAF
PADL 222325Z 2300/2324 35006KT P6SM SKC
     FM230300 36013G20KT P6SM SKC WS020/06030KT
     FM230700 36020G30KT P6SM SKC WS020/07030KT
     FM231200 36025G35KT P6SM SKC WS020/08030KT
     FM231600 36022G30KT 4SM -SN BKN025 OVC040 WS020/08040KT=

USA.gov is the U.S. government's official web portal to all federal, state and local government web resources and services.